Time;durP1;ratioP1;P1;durP2;ratioP2;P2;SDS_P1;SDS_P2;PMS_P1;PMS_P2;Temp;Humidity;BMP_temperature;BMP_pressure;BME280_temperature;BME280_humidity;BME280_pressure;Samples;Min_cycle;Max_cycle;Signal;HPM_P1;HPM_P2
2021/01/06 05:01:54;;;;;;;13.10;9.40;;;2.20;99.90;;;;;;5424770;23;20954;-65
2021/01/06 05:04:55;;;;;;;14.37;11.07;;;2.20;99.90;;;;;;4976882;28;20443;-64
2021/01/06 05:07:31;;;;;;;12.00;10.10;;;2.30;99.90;;;;;;4955291;28;20462;-65
2021/01/06 05:10:07;;;;;;;12.33;11.03;;;2.20;99.90;;;;;;4976544;28;20453;-65
2021/01/06 05:12:38;;;;;;;15.33;10.43;;;2.30;99.90;;;;;;4976672;28;20541;-65
2021/01/06 05:15:33;;;;;;;13.77;10.90;;;2.30;99.90;;;;;;4976708;28;20443;-65
2021/01/06 05:18:00;;;;;;;11.47;9.50;;;2.30;99.90;;;;;;4975909;28;20436;-65
2021/01/06 05:20:26;;;;;;;15.10;10.90;;;2.30;99.90;;;;;;4976629;28;20458;-64
2021/01/06 05:22:53;;;;;;;11.70;9.60;;;2.30;99.90;;;;;;4976720;28;20460;-65
2021/01/06 05:25:19;;;;;;;12.60;10.10;;;2.40;99.90;;;;;;4976565;28;20455;-65
2021/01/06 05:27:46;;;;;;;12.77;9.77;;;2.40;99.90;;;;;;4977014;28;20454;-65
2021/01/06 05:30:21;;;;;;;10.90;9.57;;;2.30;99.90;;;;;;4975714;28;20980;-64
2021/01/06 05:32:48;;;;;;;11.23;9.60;;;2.30;99.90;;;;;;4974900;28;20511;-65
2021/01/06 05:35:19;;;;;;;11.43;9.20;;;2.30;99.90;;;;;;4975407;28;20454;-63
2021/01/06 05:37:49;;;;;;;10.53;9.40;;;2.30;99.90;;;;;;4974880;28;20511;-64
2021/01/06 05:40:15;;;;;;;10.67;9.23;;;2.30;99.90;;;;;;4975066;28;20498;-64
2021/01/06 05:42:48;;;;;;;11.83;9.67;;;2.20;99.90;;;;;;4974771;28;20942;-64
2021/01/06 05:45:15;;;;;;;10.23;8.83;;;2.30;99.90;;;;;;4975111;28;20439;-65
2021/01/06 05:47:44;;;;;;;13.00;9.63;;;2.30;99.90;;;;;;4975452;28;20458;-64
2021/01/06 05:50:17;;;;;;;11.50;8.70;;;2.30;99.90;;;;;;4974808;28;20914;-65
2021/01/06 05:52:52;;;;;;;9.70;8.67;;;2.30;99.90;;;;;;4975020;28;20490;-64
2021/01/06 05:55:19;;;;;;;10.90;9.17;;;2.40;99.90;;;;;;4975061;28;20526;-65
2021/01/06 05:57:54;;;;;;;9.87;8.87;;;2.40;99.90;;;;;;4975038;28;20469;-64
2021/01/06 06:00:32;;;;;;;9.63;8.40;;;2.40;99.90;;;;;;4975150;28;20804;-65
2021/01/06 06:03:31;;;;;;;12.67;8.80;;;2.40;99.90;;;;;;4975760;28;20466;-64
2021/01/06 06:06:05;;;;;;;8.53;7.67;;;2.40;99.90;;;;;;4972869;28;20809;-64
2021/01/06 06:08:48;;;;;;;10.20;8.80;;;2.40;99.90;;;;;;4975409;28;20443;-65
2021/01/06 06:11:48;;;;;;;10.27;9.20;;;2.50;99.90;;;;;;4974799;28;20482;-64
2021/01/06 06:14:45;;;;;;;13.30;9.30;;;2.40;99.90;;;;;;4958119;28;20949;-64
2021/01/06 06:17:20;;;;;;;9.03;7.93;;;2.40;99.90;;;;;;4974685;28;20462;-65
2021/01/06 06:20:16;;;;;;;9.53;8.53;;;2.50;99.90;;;;;;4978366;28;20445;-64
2021/01/06 06:22:59;;;;;;;9.17;7.80;;;2.50;99.90;;;;;;4978693;28;20446;-64
2021/01/06 06:25:29;;;;;;;9.63;8.30;;;2.40;99.90;;;;;;4979285;28;20497;-64
2021/01/06 06:28:08;;;;;;;9.00;8.10;;;2.40;99.90;;;;;;4978484;28;20821;-65
2021/01/06 06:30:38;;;;;;;9.97;8.93;;;2.50;99.90;;;;;;4978360;28;20489;-65
2021/01/06 06:33:18;;;;;;;9.83;8.73;;;2.40;99.90;;;;;;4978759;28;20467;-65
2021/01/06 06:35:48;;;;;;;12.13;7.87;;;2.50;99.90;;;;;;4978350;28;20805;-65
2021/01/06 06:38:17;;;;;;;8.53;7.63;;;2.40;99.90;;;;;;4978337;28;20455;-65
2021/01/06 06:40:53;;;;;;;8.77;7.87;;;2.40;99.90;;;;;;4978301;28;20529;-65
2021/01/06 06:43:30;;;;;;;10.20;8.90;;;2.30;99.90;;;;;;4990949;28;20433;-65
2021/01/06 06:46:02;;;;;;;9.00;8.10;;;2.30;99.90;;;;;;5001780;28;20462;-64
2021/01/06 06:48:38;;;;;;;8.73;7.90;;;2.40;99.90;;;;;;5002037;28;20913;-64
2021/01/06 06:51:12;;;;;;;8.30;7.40;;;2.40;99.90;;;;;;5001959;28;20470;-65
2021/01/06 06:53:49;;;;;;;9.40;8.37;;;2.40;99.90;;;;;;5002300;28;20429;-64
2021/01/06 06:56:23;;;;;;;9.60;7.97;;;2.40;99.90;;;;;;4989163;28;20871;-67
2021/01/06 06:58:53;;;;;;;9.17;8.03;;;2.40;99.90;;;;;;4978876;28;20442;-66
2021/01/06 07:01:25;;;;;;;9.33;8.20;;;2.30;99.90;;;;;;4978815;28;20483;-66
2021/01/06 07:03:57;;;;;;;8.63;7.70;;;2.30;99.90;;;;;;4978527;28;20508;-65
2021/01/06 07:06:25;;;;;;;9.10;8.17;;;2.30;99.90;;;;;;4978469;28;20438;-65
2021/01/06 07:08:54;;;;;;;8.60;7.70;;;2.40;99.90;;;;;;4978527;28;20476;-65
2021/01/06 07:11:25;;;;;;;8.57;7.60;;;2.30;99.90;;;;;;4977989;28;20478;-65
2021/01/06 07:13:59;;;;;;;8.13;7.33;;;2.30;99.90;;;;;;4977357;28;20936;-65
2021/01/06 07:16:31;;;;;;;10.77;8.30;;;2.40;99.90;;;;;;4977666;28;20439;-66
2021/01/06 07:19:16;;;;;;;8.30;7.50;;;2.40;99.90;;;;;;4977529;28;20494;-67
2021/01/06 07:21:42;;;;;;;9.37;8.47;;;2.40;99.90;;;;;;4977675;28;20883;-66
2021/01/06 07:24:18;;;;;;;8.57;7.77;;;2.40;99.90;;;;;;4976802;28;20462;-65
2021/01/06 07:26:47;;;;;;;9.60;8.57;;;2.40;99.90;;;;;;4977462;28;20443;-65
2021/01/06 07:29:16;;;;;;;8.60;7.80;;;2.50;99.90;;;;;;4976172;28;20459;-65
2021/01/06 07:31:53;;;;;;;8.30;7.40;;;2.50;99.90;;;;;;4979769;28;20478;-65
2021/01/06 07:34:23;;;;;;;9.47;8.47;;;2.60;99.90;;;;;;4976972;28;21049;-65
2021/01/06 07:36:53;;;;;;;9.27;7.70;;;2.60;99.90;;;;;;4979310;28;20470;-66
2021/01/06 07:39:22;;;;;;;8.80;7.90;;;2.50;99.90;;;;;;4977894;28;20459;-65
2021/01/06 07:41:49;;;;;;;8.90;8.00;;;2.50;99.90;;;;;;4976828;28;20874;-65
2021/01/06 07:44:24;;;;;;;8.90;8.00;;;2.50;99.90;;;;;;4977029;28;20505;-65
2021/01/06 07:46:58;;;;;;;11.70;8.90;;;2.50;99.90;;;;;;4976754;28;20498;-64
2021/01/06 07:49:36;;;;;;;11.27;8.17;;;2.50;99.90;;;;;;4977292;28;20789;-65
2021/01/06 07:52:14;;;;;;;10.70;9.17;;;2.50;99.90;;;;;;4977514;28;20482;-65
2021/01/06 07:54:50;;;;;;;13.80;9.20;;;2.50;99.90;;;;;;4976535;28;20936;-65
2021/01/06 07:57:26;;;;;;;9.40;8.27;;;2.40;99.90;;;;;;4976312;28;20984;-65
2021/01/06 07:59:54;;;;;;;9.10;8.17;;;2.40;99.90;;;;;;4977354;28;20438;-65
2021/01/06 08:02:26;;;;;;;10.27;8.53;;;2.50;99.90;;;;;;4976209;28;20489;-65
2021/01/06 08:05:20;;;;;;;8.70;7.90;;;2.40;99.90;;;;;;4976436;28;20449;-65
2021/01/06 08:07:46;;;;;;;10.37;8.83;;;2.40;99.90;;;;;;4974903;28;20844;-64
2021/01/06 08:10:24;;;;;;;9.50;8.30;;;2.40;99.90;;;;;;4976592;28;20516;-64
2021/01/06 08:12:51;;;;;;;10.53;9.37;;;2.40;99.90;;;;;;4976367;28;20471;-64
2021/01/06 08:15:22;;;;;;;11.00;8.47;;;2.40;99.90;;;;;;4976456;28;20454;-65
2021/01/06 08:17:54;;;;;;;9.53;8.00;;;2.50;99.90;;;;;;4976162;28;20526;-64
2021/01/06 08:20:24;;;;;;;8.70;7.67;;;2.50;99.90;;;;;;4976597;28;20443;-63
2021/01/06 08:22:58;;;;;;;9.37;8.40;;;2.40;99.90;;;;;;4977745;28;20531;-64
2021/01/06 08:25:29;;;;;;;9.90;8.90;;;2.50;99.90;;;;;;4976416;28;20535;-65
2021/01/06 08:27:55;;;;;;;8.50;7.60;;;2.50;99.90;;;;;;4976439;28;20443;-63
2021/01/06 08:30:24;;;;;;;9.23;8.13;;;2.50;99.90;;;;;;4976324;28;20458;-65
2021/01/06 08:33:03;;;;;;;12.80;8.30;;;2.50;99.90;;;;;;4975891;28;20485;-64
2021/01/06 08:35:33;;;;;;;11.40;8.70;;;2.60;99.90;;;;;;4975758;28;20944;-64
2021/01/06 08:37:59;;;;;;;9.17;8.23;;;3.10;99.90;;;;;;4976097;28;20458;-64
2021/01/06 08:40:36;;;;;;;8.20;7.40;;;3.30;99.90;;;;;;4975533;28;20465;-64
2021/01/06 08:43:10;;;;;;;8.20;7.50;;;3.60;99.90;;;;;;4976607;28;20562;-63
2021/01/06 08:45:37;;;;;;;8.90;8.00;;;3.40;99.90;;;;;;4976000;28;20866;-62
2021/01/06 08:48:15;;;;;;;8.83;7.70;;;3.40;99.90;;;;;;4975851;28;20455;-65
2021/01/06 08:50:45;;;;;;;9.13;8.33;;;3.30;99.90;;;;;;4975453;28;20482;-64
2021/01/06 08:53:14;;;;;;;8.37;7.53;;;3.70;99.90;;;;;;4975307;28;20474;-63
2021/01/06 08:55:53;;;;;;;8.50;7.40;;;3.80;99.90;;;;;;4976426;28;20454;-62
2021/01/06 08:58:19;;;;;;;7.90;7.10;;;3.80;99.90;;;;;;4975979;28;20439;-64
2021/01/06 09:00:58;;;;;;;8.17;7.37;;;3.80;99.90;;;;;;4975161;28;20545;-63
2021/01/06 09:03:30;;;;;;;9.00;8.10;;;3.70;99.90;;;;;;4975158;28;20450;-64
2021/01/06 09:06:02;;;;;;;8.00;7.20;;;3.50;99.90;;;;;;4975294;28;20450;-64
2021/01/06 09:08:32;;;;;;;8.60;7.80;;;3.30;99.90;;;;;;4975502;28;20439;-63
2021/01/06 09:11:14;;;;;;;10.03;8.80;;;3.20;99.90;;;;;;4975125;28;20482;-63
2021/01/06 09:13:44;;;;;;;9.37;8.20;;;3.10;99.90;;;;;;4974935;28;20984;-64
2021/01/06 09:16:15;;;;;;;9.47;8.43;;;3.10;99.90;;;;;;4975882;28;20438;-63
2021/01/06 09:18:46;;;;;;;13.17;8.87;;;2.90;99.90;;;;;;4975309;28;20443;-64
2021/01/06 09:21:21;;;;;;;9.33;8.43;;;2.80;99.90;;;;;;4975493;28;20470;-62
2021/01/06 09:23:50;;;;;;;9.97;8.60;;;2.70;99.90;;;;;;4975079;28;20462;-61
2021/01/06 09:26:21;;;;;;;9.90;8.27;;;2.70;99.90;;;;;;4974757;28;20465;-63
2021/01/06 09:28:56;;;;;;;10.63;9.63;;;2.80;99.90;;;;;;4975888;28;20830;-63
2021/01/06 09:31:22;;;;;;;11.47;9.53;;;2.80;99.90;;;;;;4975138;28;20474;-64
2021/01/06 09:33:49;;;;;;;9.93;8.67;;;2.70;99.90;;;;;;4974581;28;20852;-63
2021/01/06 09:36:16;;;;;;;12.07;9.90;;;2.70;99.90;;;;;;4974752;28;20841;-63
2021/01/06 09:38:45;;;;;;;9.83;8.70;;;2.80;99.90;;;;;;4974798;28;20462;-63
2021/01/06 09:41:15;;;;;;;11.03;9.37;;;2.70;99.90;;;;;;4974409;28;20481;-63
2021/01/06 09:43:47;;;;;;;11.67;10.23;;;2.60;99.90;;;;;;4974677;28;20467;-63
2021/01/06 09:46:16;;;;;;;15.27;10.83;;;2.60;99.90;;;;;;4975033;28;20447;-64
2021/01/06 09:48:45;;;;;;;10.47;9.37;;;2.60;99.90;;;;;;4974939;28;20470;-63
2021/01/06 09:51:15;;;;;;;12.43;10.67;;;2.70;99.90;;;;;;4974558;28;20985;-63
2021/01/06 09:53:43;;;;;;;10.80;9.73;;;2.70;99.90;;;;;;4974270;28;20470;-63
2021/01/06 09:56:14;;;;;;;9.47;8.47;;;2.80;99.90;;;;;;4974498;28;20958;-63
2021/01/06 09:58:42;;;;;;;10.50;8.50;;;2.90;99.90;;;;;;4974887;28;20443;-62
2021/01/06 10:01:29;;;;;;;8.83;7.93;;;2.90;99.90;;;;;;4974494;28;20502;-63
2021/01/06 10:04:00;;;;;;;10.03;8.80;;;3.00;99.90;;;;;;4975029;28;20783;-63
2021/01/06 10:06:49;;;;;;;10.77;8.77;;;3.00;99.90;;;;;;4974658;28;20446;-63
2021/01/06 10:09:24;;;;;;;9.63;7.90;;;3.00;99.90;;;;;;4972503;28;20454;-62
2021/01/06 10:12:33;;;;;;;10.00;9.00;;;3.10;99.90;;;;;;4974645;28;20992;-62
2021/01/06 10:15:24;;;;;;;9.90;8.90;;;3.00;99.90;;;;;;4970227;28;20450;-63
2021/01/06 10:17:59;;;;;;;9.30;8.27;;;3.00;99.90;;;;;;4976138;28;20477;-63
2021/01/06 10:20:31;;;;;;;10.37;9.27;;;3.10;99.90;;;;;;4979994;28;20442;-63
2021/01/06 10:23:07;;;;;;;10.60;9.50;;;3.10;99.90;;;;;;4978931;28;20431;-63
2021/01/06 10:25:39;;;;;;;10.53;9.47;;;3.10;99.90;;;;;;4979106;28;20543;-61
2021/01/06 10:28:11;;;;;;;12.67;11.13;;;3.20;99.90;;;;;;4975296;28;20914;-64
2021/01/06 10:30:38;;;;;;;10.50;9.40;;;3.10;99.90;;;;;;4975075;28;20474;-62
2021/01/06 10:33:11;;;;;;;12.57;10.10;;;3.00;99.90;;;;;;4974967;28;20475;-62
2021/01/06 10:35:47;;;;;;;12.83;10.70;;;3.00;99.90;;;;;;4975538;28;20443;-63
2021/01/06 10:38:22;;;;;;;11.33;9.80;;;3.00;99.90;;;;;;4975186;28;20807;-62
2021/01/06 10:40:49;;;;;;;12.73;10.00;;;3.00;99.90;;;;;;4975507;28;20501;-63
2021/01/06 10:43:41;;;;;;;13.33;11.40;;;3.00;99.90;;;;;;4976320;28;20459;-63
2021/01/06 10:46:50;;;;;;;14.40;11.03;;;2.90;99.90;;;;;;4967691;28;20466;-62
2021/01/06 10:49:57;;;;;;;26.30;19.40;;;3.00;99.90;;;;;;4965006;28;20600;-62
2021/01/06 10:52:29;;;;;;;20.10;15.60;;;3.00;99.90;;;;;;4975114;28;20501;-62
2021/01/06 10:55:01;;;;;;;12.77;11.47;;;3.00;99.90;;;;;;4975177;28;20942;-62
2021/01/06 10:57:31;;;;;;;13.30;11.50;;;2.90;99.90;;;;;;4976598;28;20443;-62
2021/01/06 11:00:16;;;;;;;22.00;15.60;;;2.90;99.90;;;;;;4976606;28;20470;-64
2021/01/06 11:03:09;;;;;;;19.87;14.63;;;2.90;99.90;;;;;;4975224;28;20427;-62
2021/01/06 11:05:40;;;;;;;15.03;11.97;;;2.90;99.90;;;;;;4978903;28;20454;-62
2021/01/06 11:08:42;;;;;;;14.03;11.47;;;2.90;99.90;;;;;;4978690;28;20446;-63
2021/01/06 11:11:34;;;;;;;13.00;11.10;;;3.00;99.90;;;;;;4978542;28;20582;-62
2021/01/06 11:14:28;;;;;;;12.20;10.90;;;3.00;99.90;;;;;;4978536;28;20431;-62
2021/01/06 11:16:57;;;;;;;13.37;11.53;;;3.00;99.90;;;;;;4978556;28;20439;-62
2021/01/06 11:19:44;;;;;;;11.67;10.50;;;3.10;99.90;;;;;;4978420;28;20462;-62
2021/01/06 11:22:32;;;;;;;11.43;10.23;;;3.10;99.90;;;;;;4978337;28;20474;-62
2021/01/06 11:25:02;;;;;;;15.57;11.80;;;3.20;99.90;;;;;;4978203;28;20489;-64
2021/01/06 11:27:41;;;;;;;12.40;10.30;;;3.20;99.90;;;;;;4978152;28;20504;-63
2021/01/06 11:30:20;;;;;;;14.70;12.20;;;3.20;99.90;;;;;;4987212;28;20442;-62
2021/01/06 11:32:46;;;;;;;15.60;12.67;;;3.20;99.90;;;;;;4990300;28;20459;-62
2021/01/06 11:35:30;;;;;;;13.70;11.20;;;3.30;99.90;;;;;;4980743;28;20823;-62
2021/01/06 11:37:59;;;;;;;16.07;14.20;;;3.20;99.90;;;;;;4988074;28;20457;-62
2021/01/06 11:40:51;;;;;;;13.83;11.83;;;3.20;99.90;;;;;;4979605;28;20478;-62
2021/01/06 11:43:42;;;;;;;14.00;12.30;;;3.20;99.90;;;;;;4978017;28;20942;-62
2021/01/06 11:46:45;;;;;;;12.90;11.67;;;3.20;99.90;;;;;;4981076;28;20434;-62
2021/01/06 11:49:23;;;;;;;14.13;12.13;;;3.30;99.90;;;;;;4980964;28;20446;-63
2021/01/06 11:52:05;;;;;;;14.63;11.57;;;3.30;99.90;;;;;;4980646;28;20834;-62
2021/01/06 11:54:36;;;;;;;12.83;11.60;;;3.30;99.90;;;;;;4978077;28;20466;-62
2021/01/06 11:57:12;;;;;;;13.20;11.80;;;3.30;99.90;;;;;;4979185;28;20442;-63
2021/01/06 11:59:43;;;;;;;13.90;12.27;;;3.30;99.90;;;;;;4978412;28;20438;-62
2021/01/06 12:02:16;;;;;;;14.70;11.90;;;3.30;99.90;;;;;;4977969;28;20482;-62
2021/01/06 12:05:07;;;;;;;16.20;12.37;;;3.30;99.90;;;;;;4978999;28;20446;-64
2021/01/06 12:07:51;;;;;;;13.60;12.20;;;3.30;99.90;;;;;;4977730;28;20482;-63
2021/01/06 12:10:27;;;;;;;13.60;12.20;;;3.30;99.90;;;;;;4977529;28;20450;-63
2021/01/06 12:13:04;;;;;;;13.70;12.23;;;3.30;99.90;;;;;;4977426;28;20473;-63
2021/01/06 12:15:42;;;;;;;14.83;12.47;;;3.30;99.90;;;;;;4976934;28;20511;-64
2021/01/06 12:18:24;;;;;;;14.17;12.77;;;3.30;99.90;;;;;;4977667;28;20850;-63
2021/01/06 12:20:52;;;;;;;15.20;11.60;;;3.30;99.90;;;;;;4977562;28;20481;-62
2021/01/06 12:23:24;;;;;;;13.80;12.10;;;3.20;99.90;;;;;;4977948;28;20450;-63
2021/01/06 12:25:53;;;;;;;12.87;11.53;;;3.30;99.90;;;;;;4977558;28;20446;-62
2021/01/06 12:28:30;;;;;;;19.33;12.43;;;3.30;99.90;;;;;;4976892;28;20933;-62
2021/01/06 12:31:14;;;;;;;13.87;12.33;;;3.30;99.90;;;;;;4977099;28;20478;-63
2021/01/06 12:33:45;;;;;;;15.30;12.57;;;3.40;99.90;;;;;;4976882;28;20586;-63
2021/01/06 12:36:18;;;;;;;12.47;11.17;;;3.30;99.90;;;;;;4977445;28;20439;-62
2021/01/06 12:38:46;;;;;;;12.90;10.03;;;3.30;99.90;;;;;;4977435;28;20443;-62
2021/01/06 12:41:19;;;;;;;12.30;10.87;;;3.30;99.90;;;;;;4977363;28;20527;-62
2021/01/06 12:43:50;;;;;;;13.37;10.87;;;3.30;99.90;;;;;;4976758;28;20431;-63
2021/01/06 12:46:32;;;;;;;12.80;11.40;;;3.30;99.90;;;;;;4976284;28;20929;-61
2021/01/06 12:49:23;;;;;;;14.53;13.03;;;3.20;99.90;;;;;;4976199;28;20443;-63
2021/01/06 12:52:10;;;;;;;12.87;11.23;;;3.20;99.90;;;;;;4976101;28;20478;-63
2021/01/06 12:54:39;;;;;;;13.90;12.50;;;3.20;99.90;;;;;;4976361;28;20459;-62
2021/01/06 12:57:11;;;;;;;12.70;10.77;;;3.20;99.90;;;;;;4976821;28;20497;-62
2021/01/06 12:59:48;;;;;;;13.60;11.97;;;3.30;99.90;;;;;;4976217;28;20451;-62
2021/01/06 13:02:31;;;;;;;13.10;11.50;;;3.30;99.90;;;;;;4976818;28;20474;-62
2021/01/06 13:05:09;;;;;;;15.90;12.30;;;3.20;99.90;;;;;;4975991;28;20438;-62
2021/01/06 13:07:38;;;;;;;13.40;10.73;;;3.20;99.90;;;;;;4976612;28;20443;-62
2021/01/06 13:10:21;;;;;;;12.40;10.83;;;3.20;99.90;;;;;;4977791;28;20451;-62
2021/01/06 13:12:53;;;;;;;14.73;12.17;;;3.20;99.90;;;;;;4976177;28;20473;-62
2021/01/06 13:15:26;;;;;;;13.60;12.20;;;3.20;99.90;;;;;;4977621;28;20442;-62
2021/01/06 13:18:01;;;;;;;13.30;12.00;;;3.20;99.90;;;;;;4976414;28;20501;-62
2021/01/06 13:20:44;;;;;;;11.60;10.40;;;3.10;99.90;;;;;;4976482;28;20462;-61
2021/01/06 13:23:38;;;;;;;12.60;11.30;;;3.10;99.90;;;;;;4976530;28;20442;-63
2021/01/06 13:26:29;;;;;;;14.37;12.87;;;3.10;99.90;;;;;;4952693;28;20454;-63
2021/01/06 13:29:20;;;;;;;12.10;10.87;;;3.10;99.90;;;;;;4975547;28;20446;-63
2021/01/06 13:32:07;;;;;;;12.30;11.00;;;3.20;99.90;;;;;;4968998;28;20478;-62
2021/01/06 13:34:37;;;;;;;12.33;11.03;;;3.10;99.90;;;;;;4976059;28;20434;-63
2021/01/06 13:37:21;;;;;;;14.00;12.40;;;3.20;99.90;;;;;;4976116;28;20501;-63
2021/01/06 13:39:50;;;;;;;11.67;10.47;;;3.20;99.90;;;;;;4975404;28;20450;-63
2021/01/06 13:42:28;;;;;;;10.93;9.83;;;3.20;99.90;;;;;;4976765;28;20918;-63
2021/01/06 13:45:07;;;;;;;15.40;13.63;;;3.20;99.90;;;;;;4977213;28;20441;-62
2021/01/06 13:47:39;;;;;;;14.13;11.43;;;3.20;99.90;;;;;;4975797;28;20447;-61
2021/01/06 13:50:30;;;;;;;12.87;11.40;;;3.30;99.90;;;;;;4975943;28;20438;-61
2021/01/06 13:52:58;;;;;;;14.50;13.00;;;3.30;99.90;;;;;;4975580;28;20466;-61
2021/01/06 13:55:38;;;;;;;13.10;11.80;;;3.20;99.90;;;;;;4976226;28;20458;-63
2021/01/06 13:58:12;;;;;;;12.90;11.53;;;3.20;99.90;;;;;;4975704;28;20442;-62
2021/01/06 14:00:46;;;;;;;10.53;9.43;;;3.20;99.90;;;;;;4976529;28;20487;-61
2021/01/06 14:03:33;;;;;;;11.30;10.20;;;3.20;99.90;;;;;;4977655;28;20442;-62
2021/01/06 14:06:09;;;;;;;12.87;11.57;;;3.20;99.90;;;;;;4977683;28;20439;-63
2021/01/06 14:09:01;;;;;;;12.53;11.23;;;3.20;99.90;;;;;;4978119;28;20438;-63
2021/01/06 14:11:42;;;;;;;11.43;10.33;;;3.10;99.90;;;;;;4977265;28;21001;-61
2021/01/06 14:14:18;;;;;;;11.77;10.23;;;3.10;99.90;;;;;;4978148;28;20462;-62
2021/01/06 14:16:58;;;;;;;12.70;10.53;;;3.10;99.90;;;;;;4977506;28;20442;-63
2021/01/06 14:19:48;;;;;;;20.10;17.90;;;3.20;99.90;;;;;;4977538;28;20443;-61
2021/01/06 14:22:29;;;;;;;13.83;12.23;;;3.20;99.90;;;;;;4975001;28;20981;-62
2021/01/06 14:24:56;;;;;;;14.40;12.87;;;3.20;99.90;;;;;;4984854;28;20849;-62
2021/01/06 14:27:40;;;;;;;12.27;10.67;;;3.20;99.90;;;;;;4978816;28;20439;-63
2021/01/06 14:30:16;;;;;;;11.80;10.60;;;3.20;99.90;;;;;;4976987;28;20481;-65
2021/01/06 14:32:48;;;;;;;14.23;12.73;;;3.20;99.90;;;;;;4974910;28;20470;-63
2021/01/06 14:35:38;;;;;;;16.80;14.40;;;3.10;99.90;;;;;;4974621;28;20474;-64
2021/01/06 14:38:16;;;;;;;15.80;12.67;;;3.20;99.90;;;;;;4974792;28;20775;-63
2021/01/06 14:40:50;;;;;;;11.60;10.47;;;3.10;99.90;;;;;;4978987;28;20485;-64
2021/01/06 14:43:30;;;;;;;13.40;11.80;;;3.00;99.90;;;;;;4978507;28;21042;-64
2021/01/06 14:46:09;;;;;;;12.17;10.97;;;3.00;99.90;;;;;;4978614;28;20438;-64
2021/01/06 14:48:45;;;;;;;13.47;11.90;;;3.10;99.90;;;;;;4978572;28;20439;-61
2021/01/06 14:51:19;;;;;;;12.20;11.00;;;3.10;99.90;;;;;;4978586;28;20482;-63
2021/01/06 14:53:55;;;;;;;11.73;10.10;;;3.10;99.90;;;;;;4978655;28;20473;-63
2021/01/06 14:56:26;;;;;;;10.73;9.63;;;3.00;99.90;;;;;;4978602;28;20442;-64
2021/01/06 14:59:21;;;;;;;15.07;12.80;;;3.00;99.90;;;;;;4980141;28;20493;-63
2021/01/06 15:02:08;;;;;;;16.20;14.40;;;3.00;99.90;;;;;;4986486;28;20482;-62
2021/01/06 15:04:38;;;;;;;13.23;11.37;;;2.90;99.90;;;;;;4979451;28;20442;-64
2021/01/06 15:07:13;;;;;;;13.63;12.20;;;2.90;99.90;;;;;;4978267;28;20442;-63
2021/01/06 15:09:53;;;;;;;11.97;10.77;;;2.90;99.90;;;;;;4978281;28;20501;-63
2021/01/06 15:12:24;;;;;;;38.13;23.17;;;3.00;99.90;;;;;;4978218;28;20887;-63
2021/01/06 15:14:55;;;;;;;14.33;12.80;;;3.00;99.90;;;;;;4978809;28;20419;-63
2021/01/06 15:17:26;;;;;;;16.20;12.83;;;3.00;99.90;;;;;;4978251;28;20445;-63
2021/01/06 15:19:58;;;;;;;12.63;11.33;;;3.10;99.90;;;;;;4978256;28;20451;-63
2021/01/06 15:22:30;;;;;;;11.93;10.70;;;3.00;99.90;;;;;;4977847;28;20474;-63
2021/01/06 15:24:57;;;;;;;12.93;10.37;;;2.90;99.90;;;;;;4977863;28;20443;-63
2021/01/06 15:27:27;;;;;;;12.73;11.37;;;2.90;99.90;;;;;;4977882;28;20459;-65
2021/01/06 15:30:00;;;;;;;12.63;11.33;;;2.90;99.90;;;;;;4977931;28;20443;-64
2021/01/06 15:32:39;;;;;;;12.47;9.80;;;2.90;99.90;;;;;;4977269;28;20482;-63
2021/01/06 15:35:18;;;;;;;10.93;9.70;;;2.90;99.90;;;;;;4977986;28;20447;-63
2021/01/06 15:37:45;;;;;;;11.00;9.90;;;2.90;99.90;;;;;;4977596;28;20934;-63
2021/01/06 15:40:25;;;;;;;11.33;10.13;;;2.90;99.90;;;;;;4978107;28;20458;-62
2021/01/06 15:42:56;;;;;;;10.40;9.30;;;2.80;99.90;;;;;;4978088;28;20439;-63
2021/01/06 15:45:23;;;;;;;11.13;10.03;;;2.80;99.90;;;;;;4979845;28;20915;-62
2021/01/06 15:47:50;;;;;;;11.60;10.40;;;2.80;99.90;;;;;;4979963;28;20443;-61
2021/01/06 15:50:22;;;;;;;11.70;10.40;;;2.80;99.90;;;;;;4978637;28;20478;-64
2021/01/06 15:52:50;;;;;;;12.23;10.43;;;2.80;99.90;;;;;;4979574;28;20463;-62
2021/01/06 15:55:19;;;;;;;11.87;10.40;;;2.70;99.90;;;;;;4979425;28;20454;-63
2021/01/06 15:57:48;;;;;;;14.63;10.63;;;2.70;99.90;;;;;;4979281;28;20817;-63
2021/01/06 16:00:17;;;;;;;12.33;10.93;;;2.80;99.90;;;;;;4977222;28;20942;-62
2021/01/06 16:02:45;;;;;;;9.77;8.77;;;2.80;99.90;;;;;;4976927;28;20443;-63
2021/01/06 16:05:28;;;;;;;12.00;10.90;;;3.20;99.90;;;;;;4977384;28;20450;-64
2021/01/06 16:07:54;;;;;;;13.10;11.27;;;3.60;99.90;;;;;;4977144;28;20435;-63
2021/01/06 16:10:24;;;;;;;12.10;10.90;;;3.60;99.90;;;;;;4976794;28;20438;-63
2021/01/06 16:12:52;;;;;;;13.40;12.00;;;3.50;99.90;;;;;;4976584;28;20864;-63
2021/01/06 16:15:29;;;;;;;11.30;10.20;;;3.40;99.90;;;;;;4977402;28;21004;-63
2021/01/06 16:17:57;;;;;;;11.50;10.23;;;3.30;99.90;;;;;;4976737;28;20438;-62
2021/01/06 16:20:30;;;;;;;13.67;10.50;;;3.20;99.90;;;;;;4976923;28;20528;-62
2021/01/06 16:22:58;;;;;;;13.80;12.13;;;3.10;99.90;;;;;;4976743;28;20435;-63
2021/01/06 16:25:29;;;;;;;13.77;11.83;;;3.10;99.90;;;;;;4980103;28;20542;-62
2021/01/06 16:27:57;;;;;;;13.40;10.77;;;3.00;99.90;;;;;;4977129;28;20439;-63
2021/01/06 16:30:33;;;;;;;13.20;11.73;;;3.00;99.90;;;;;;4977574;28;20517;-63
2021/01/06 16:33:11;;;;;;;14.50;12.40;;;2.90;99.90;;;;;;4976435;28;20984;-63
2021/01/06 16:35:39;;;;;;;14.33;12.30;;;2.90;99.90;;;;;;4976580;28;20446;-63
2021/01/06 16:38:11;;;;;;;14.23;11.63;;;2.90;99.90;;;;;;4976675;28;20956;-63
2021/01/06 16:40:38;;;;;;;14.17;11.30;;;2.80;99.90;;;;;;4976619;28;20621;-64
2021/01/06 16:43:15;;;;;;;14.40;11.80;;;2.90;99.90;;;;;;4976410;28;20802;-64
2021/01/06 16:45:41;;;;;;;12.77;10.90;;;2.80;99.90;;;;;;4976335;28;20434;-63
2021/01/06 16:48:22;;;;;;;14.67;12.70;;;2.90;99.90;;;;;;4976818;28;20439;-63
2021/01/06 16:50:55;;;;;;;13.80;12.00;;;2.80;99.90;;;;;;4976013;28;20474;-63
2021/01/06 16:53:24;;;;;;;14.37;11.90;;;2.80;99.90;;;;;;4976202;28;20469;-63
2021/01/06 16:55:53;;;;;;;16.73;12.73;;;2.80;99.90;;;;;;4976131;28;20459;-63
2021/01/06 16:58:20;;;;;;;16.83;13.07;;;2.80;99.90;;;;;;4976014;28;20459;-63
2021/01/06 17:00:54;;;;;;;17.73;13.47;;;2.90;99.90;;;;;;4975917;28;20487;-63
2021/01/06 17:03:25;;;;;;;15.67;12.90;;;2.90;99.90;;;;;;4975435;28;20431;-62
2021/01/06 17:05:59;;;;;;;18.80;13.33;;;2.90;99.90;;;;;;4976056;28;20443;-62
2021/01/06 17:08:26;;;;;;;17.60;14.03;;;2.90;99.90;;;;;;4975787;28;20442;-64
2021/01/06 17:10:54;;;;;;;19.17;14.13;;;2.80;99.90;;;;;;4976106;28;20477;-62
2021/01/06 17:13:21;;;;;;;18.50;13.80;;;2.80;99.90;;;;;;4975551;28;20571;-61
2021/01/06 17:15:55;;;;;;;17.00;13.83;;;2.80;99.90;;;;;;4975716;28;20454;-63
2021/01/06 17:18:23;;;;;;;16.80;12.50;;;2.80;99.90;;;;;;4975582;28;20439;-63
2021/01/06 17:20:53;;;;;;;17.20;14.10;;;2.90;99.90;;;;;;4975894;28;20479;-63
2021/01/06 17:23:21;;;;;;;17.17;13.70;;;2.90;99.90;;;;;;4975941;28;20802;-63
2021/01/06 17:25:47;;;;;;;17.63;13.47;;;2.90;99.90;;;;;;4976497;28;20465;-62
2021/01/06 17:28:16;;;;;;;22.73;15.70;;;2.90;99.90;;;;;;4977115;28;20455;-63
2021/01/06 17:30:45;;;;;;;18.33;14.27;;;2.90;99.90;;;;;;4975986;28;20479;-63
2021/01/06 17:33:15;;;;;;;23.97;14.60;;;2.90;99.90;;;;;;4975595;28;20501;-63
2021/01/06 17:35:43;;;;;;;18.37;14.20;;;2.90;99.90;;;;;;4976083;28;20443;-63
2021/01/06 17:38:11;;;;;;;19.60;14.57;;;2.90;99.90;;;;;;4975803;28;20486;-64
2021/01/06 17:40:38;;;;;;;19.70;14.73;;;2.90;99.90;;;;;;4975346;28;20494;-63
2021/01/06 17:43:06;;;;;;;23.33;15.83;;;2.90;99.90;;;;;;4975649;28;20459;-63
2021/01/06 17:45:38;;;;;;;18.33;14.50;;;2.90;99.90;;;;;;4975618;28;20481;-63
2021/01/06 17:48:07;;;;;;;19.50;15.23;;;3.00;99.90;;;;;;4975593;28;20469;-63
2021/01/06 17:50:35;;;;;;;22.97;15.00;;;3.00;99.90;;;;;;4975662;28;20463;-63
2021/01/06 17:53:03;;;;;;;21.83;16.50;;;2.90;99.90;;;;;;4975414;28;20501;-63
2021/01/06 17:55:32;;;;;;;17.17;13.80;;;2.90;99.90;;;;;;4975456;28;20847;-63
2021/01/06 17:57:59;;;;;;;17.90;13.90;;;2.90;99.90;;;;;;4975620;28;20958;-65
2021/01/06 18:00:26;;;;;;;18.17;14.80;;;2.90;99.90;;;;;;4976182;28;20443;-64
2021/01/06 18:02:53;;;;;;;19.43;13.70;;;2.90;99.90;;;;;;4976059;28;20903;-64
2021/01/06 18:05:20;;;;;;;35.93;27.13;;;2.90;99.90;;;;;;4976827;28;20451;-64
2021/01/06 18:07:46;;;;;;;21.37;16.20;;;2.90;99.90;;;;;;4976350;28;20485;-63
2021/01/06 18:10:14;;;;;;;18.70;15.00;;;2.90;99.90;;;;;;4976738;28;20455;-63
2021/01/06 18:12:42;;;;;;;20.00;14.17;;;3.00;99.90;;;;;;4976370;28;20482;-63
2021/01/06 18:15:19;;;;;;;16.83;13.00;;;3.00;99.90;;;;;;4982498;28;20470;-64
2021/01/06 18:17:46;;;;;;;15.23;12.03;;;3.00;99.90;;;;;;4982614;28;20442;-64
2021/01/06 18:20:17;;;;;;;18.40;12.87;;;3.00;99.90;;;;;;4982739;28;20809;-64
2021/01/06 18:22:44;;;;;;;16.40;13.60;;;3.00;99.90;;;;;;4983390;28;20513;-63